sensor_id;sensor_type;location;lat;lon;timestamp;temperature;humidity
65559;DHT22;52203;51.998;5.140;2022-12-29T00:00:04;9.04;118.99
65559;DHT22;52203;51.998;5.140;2022-12-29T00:02:30;9.05;118.99
65559;DHT22;52203;51.998;5.140;2022-12-29T00:04:56;9.06;118.99
65559;DHT22;52203;51.998;5.140;2022-12-29T00:07:21;9.05;118.99
65559;DHT22;52203;51.998;5.140;2022-12-29T00:09:47;9.04;118.99
65559;DHT22;52203;51.998;5.140;2022-12-29T00:12:12;9.05;118.99
65559;DHT22;52203;51.998;5.140;2022-12-29T00:14:38;9.07;118.99
65559;DHT22;52203;51.998;5.140;2022-12-29T00:17:22;9.06;118.99
65559;DHT22;52203;51.998;5.140;2022-12-29T00:19:47;9.05;118.99
65559;DHT22;52203;51.998;5.140;2022-12-29T00:22:31;9.07;118.99
65559;DHT22;52203;51.998;5.140;2022-12-29T00:25:15;9.05;118.99
65559;DHT22;52203;51.998;5.140;2022-12-29T00:27:59;9.05;118.99
65559;DHT22;52203;51.998;5.140;2022-12-29T00:30:43;9.04;118.99
65559;DHT22;52203;51.998;5.140;2022-12-29T00:33:32;9.04;118.99
65559;DHT22;52203;51.998;5.140;2022-12-29T00:36:37;9.03;118.99
65559;DHT22;52203;51.998;5.140;2022-12-29T00:39:10;9.04;118.99
65559;DHT22;52203;51.998;5.140;2022-12-29T00:41:56;9.04;118.99
65559;DHT22;52203;51.998;5.140;2022-12-29T00:44:40;9.07;118.99
65559;DHT22;52203;51.998;5.140;2022-12-29T00:47:05;9.04;118.99
65559;DHT22;52203;51.998;5.140;2022-12-29T00:49:31;9.05;118.99
65559;DHT22;52203;51.998;5.140;2022-12-29T00:52:09;9.05;118.99
65559;DHT22;52203;51.998;5.140;2022-12-29T00:54:38;9.07;118.99
65559;DHT22;52203;51.998;5.140;2022-12-29T00:57:05;9.06;118.99
65559;DHT22;52203;51.998;5.140;2022-12-29T00:59:31;9.09;118.99
65559;DHT22;52203;51.998;5.140;2022-12-29T01:01:58;9.06;118.99
65559;DHT22;52203;51.998;5.140;2022-12-29T01:04:25;9.07;118.99
65559;DHT22;52203;51.998;5.140;2022-12-29T01:06:51;9.08;118.99
65559;DHT22;52203;51.998;5.140;2022-12-29T01:09:18;9.11;118.99
65559;DHT22;52203;51.998;5.140;2022-12-29T01:12:03;9.08;118.99
65559;DHT22;52203;51.998;5.140;2022-12-29T01:14:29;9.08;118.99
65559;DHT22;52203;51.998;5.140;2022-12-29T01:16:55;9.06;118.99
65559;DHT22;52203;51.998;5.140;2022-12-29T01:19:21;9.07;118.99
65559;DHT22;52203;51.998;5.140;2022-12-29T01:21:47;9.07;118.99
65559;DHT22;52203;51.998;5.140;2022-12-29T01:24:14;9.07;118.99
65559;DHT22;52203;51.998;5.140;2022-12-29T01:26:40;9.07;118.99
65559;DHT22;52203;51.998;5.140;2022-12-29T01:29:06;9.06;118.99
65559;DHT22;52203;51.998;5.140;2022-12-29T01:31:32;9.05;118.99
65559;DHT22;52203;51.998;5.140;2022-12-29T01:33:57;9.08;118.99
65559;DHT22;52203;51.998;5.140;2022-12-29T01:36:24;9.08;118.99
65559;DHT22;52203;51.998;5.140;2022-12-29T01:38:49;9.08;118.99
65559;DHT22;52203;51.998;5.140;2022-12-29T01:41:15;9.09;118.99
65559;DHT22;52203;51.998;5.140;2022-12-29T01:43:56;9.07;118.99
65559;DHT22;52203;51.998;5.140;2022-12-29T01:46:42;9.06;118.99
65559;DHT22;52203;51.998;5.140;2022-12-29T01:49:19;9.09;118.99
65559;DHT22;52203;51.998;5.140;2022-12-29T01:51:54;9.07;118.99
65559;DHT22;52203;51.998;5.140;2022-12-29T01:54:39;9.10;118.99
65559;DHT22;52203;51.998;5.140;2022-12-29T01:57:10;9.10;118.99
65559;DHT22;52203;51.998;5.140;2022-12-29T01:59:43;9.08;118.99
65559;DHT22;52203;51.998;5.140;2022-12-29T02:02:11;9.12;118.99
65559;DHT22;52203;51.998;5.140;2022-12-29T02:04:40;9.09;118.99
65559;DHT22;52203;51.998;5.140;2022-12-29T02:07:13;9.08;118.99
65559;DHT22;52203;51.998;5.140;2022-12-29T02:09:42;9.09;118.99
65559;DHT22;52203;51.998;5.140;2022-12-29T02:12:09;9.06;118.99
65559;DHT22;52203;51.998;5.140;2022-12-29T02:14:35;9.08;118.99
65559;DHT22;52203;51.998;5.140;2022-12-29T02:31:46;9.09;118.99
65559;DHT22;52203;51.998;5.140;2022-12-29T02:42:24;9.08;118.99
65559;DHT22;52203;51.998;5.140;2022-12-29T02:48:09;9.08;118.99
65559;DHT22;52203;51.998;5.140;2022-12-29T02:50:20;9.05;118.99
65559;DHT22;52203;51.998;5.140;2022-12-29T02:55:18;9.06;118.99
65559;DHT22;52203;51.998;5.140;2022-12-29T02:57:43;9.06;118.99
65559;DHT22;52203;51.998;5.140;2022-12-29T03:00:14;9.05;118.99
65559;DHT22;52203;51.998;5.140;2022-12-29T03:10:52;9.09;118.99
65559;DHT22;52203;51.998;5.140;2022-12-29T03:16:32;9.09;118.99
65559;DHT22;52203;51.998;5.140;2022-12-29T03:19:25;9.09;118.99
65559;DHT22;52203;51.998;5.140;2022-12-29T03:21:57;9.07;118.99
65559;DHT22;52203;51.998;5.140;2022-12-29T03:24:45;9.09;118.99
65559;DHT22;52203;51.998;5.140;2022-12-29T03:27:18;9.08;118.99
65559;DHT22;52203;51.998;5.140;2022-12-29T03:29:50;9.07;118.99
65559;DHT22;52203;51.998;5.140;2022-12-29T03:32:21;9.07;118.99
65559;DHT22;52203;51.998;5.140;2022-12-29T03:34:49;9.07;118.99
65559;DHT22;52203;51.998;5.140;2022-12-29T03:37:18;9.08;118.99
65559;DHT22;52203;51.998;5.140;2022-12-29T03:39:46;9.08;118.99
65559;DHT22;52203;51.998;5.140;2022-12-29T03:42:19;9.10;118.99
65559;DHT22;52203;51.998;5.140;2022-12-29T03:44:45;9.09;118.99
65559;DHT22;52203;51.998;5.140;2022-12-29T03:47:13;9.09;118.99
65559;DHT22;52203;51.998;5.140;2022-12-29T03:49:39;9.10;118.99
65559;DHT22;52203;51.998;5.140;2022-12-29T03:52:05;9.08;118.99
65559;DHT22;52203;51.998;5.140;2022-12-29T03:54:31;9.10;118.99
65559;DHT22;52203;51.998;5.140;2022-12-29T03:56:57;9.10;118.99
65559;DHT22;52203;51.998;5.140;2022-12-29T03:59:22;9.09;118.99
65559;DHT22;52203;51.998;5.140;2022-12-29T04:01:48;9.09;118.99
65559;DHT22;52203;51.998;5.140;2022-12-29T04:04:14;9.09;118.99
65559;DHT22;52203;51.998;5.140;2022-12-29T04:06:39;9.09;118.99
65559;DHT22;52203;51.998;5.140;2022-12-29T04:09:05;9.09;118.99
65559;DHT22;52203;51.998;5.140;2022-12-29T04:11:31;9.08;118.99
65559;DHT22;52203;51.998;5.140;2022-12-29T04:13:56;9.09;118.99
65559;DHT22;52203;51.998;5.140;2022-12-29T04:16:22;9.08;118.99
65559;DHT22;52203;51.998;5.140;2022-12-29T04:18:48;9.07;118.99
65559;DHT22;52203;51.998;5.140;2022-12-29T04:21:13;9.06;118.99
65559;DHT22;52203;51.998;5.140;2022-12-29T04:23:39;9.05;118.99
65559;DHT22;52203;51.998;5.140;2022-12-29T04:26:06;9.03;118.99
65559;DHT22;52203;51.998;5.140;2022-12-29T04:28:33;9.04;118.99
65559;DHT22;52203;51.998;5.140;2022-12-29T04:30:59;9.04;118.99
65559;DHT22;52203;51.998;5.140;2022-12-29T04:33:25;9.04;118.99
65559;DHT22;52203;51.998;5.140;2022-12-29T04:35:51;9.05;118.99
65559;DHT22;52203;51.998;5.140;2022-12-29T04:38:19;9.05;118.99
65559;DHT22;52203;51.998;5.140;2022-12-29T04:40:45;9.04;118.99
65559;DHT22;52203;51.998;5.140;2022-12-29T04:43:12;9.05;118.99
65559;DHT22;52203;51.998;5.140;2022-12-29T04:45:39;9.04;118.99
65559;DHT22;52203;51.998;5.140;2022-12-29T04:48:07;9.08;118.99
65559;DHT22;52203;51.998;5.140;2022-12-29T04:50:33;9.08;118.99
65559;DHT22;52203;51.998;5.140;2022-12-29T04:52:58;9.09;118.99
65559;DHT22;52203;51.998;5.140;2022-12-29T04:55:24;9.06;118.99
65559;DHT22;52203;51.998;5.140;2022-12-29T04:57:49;9.06;118.99
65559;DHT22;52203;51.998;5.140;2022-12-29T05:00:15;9.04;118.99
65559;DHT22;52203;51.998;5.140;2022-12-29T05:02:41;9.06;118.99
65559;DHT22;52203;51.998;5.140;2022-12-29T05:05:07;9.00;118.99
65559;DHT22;52203;51.998;5.140;2022-12-29T05:07:32;8.94;118.99
65559;DHT22;52203;51.998;5.140;2022-12-29T05:09:59;8.96;118.99
65559;DHT22;52203;51.998;5.140;2022-12-29T05:12:24;8.96;118.99
65559;DHT22;52203;51.998;5.140;2022-12-29T05:14:50;8.95;118.99
65559;DHT22;52203;51.998;5.140;2022-12-29T05:17:15;8.95;118.99
65559;DHT22;52203;51.998;5.140;2022-12-29T05:19:41;8.95;118.99
65559;DHT22;52203;51.998;5.140;2022-12-29T05:22:06;8.95;118.99
65559;DHT22;52203;51.998;5.140;2022-12-29T05:24:32;8.95;118.99
65559;DHT22;52203;51.998;5.140;2022-12-29T05:26:57;8.95;118.99
65559;DHT22;52203;51.998;5.140;2022-12-29T05:29:23;8.96;118.99
65559;DHT22;52203;51.998;5.140;2022-12-29T05:31:49;8.94;118.99
65559;DHT22;52203;51.998;5.140;2022-12-29T05:34:14;8.94;118.99
65559;DHT22;52203;51.998;5.140;2022-12-29T05:36:40;8.93;118.99
65559;DHT22;52203;51.998;5.140;2022-12-29T05:39:06;8.92;118.99
65559;DHT22;52203;51.998;5.140;2022-12-29T05:41:33;8.90;118.99
65559;DHT22;52203;51.998;5.140;2022-12-29T05:44:00;8.90;118.99
65559;DHT22;52203;51.998;5.140;2022-12-29T05:46:25;8.87;118.99
65559;DHT22;52203;51.998;5.140;2022-12-29T05:48:51;8.89;118.99
65559;DHT22;52203;51.998;5.140;2022-12-29T05:51:17;8.86;118.99
65559;DHT22;52203;51.998;5.140;2022-12-29T05:53:42;8.85;118.99
65559;DHT22;52203;51.998;5.140;2022-12-29T05:56:08;8.83;118.99
65559;DHT22;52203;51.998;5.140;2022-12-29T05:58:33;8.83;118.99
65559;DHT22;52203;51.998;5.140;2022-12-29T06:00:59;8.81;118.99
65559;DHT22;52203;51.998;5.140;2022-12-29T06:03:24;8.76;118.99
65559;DHT22;52203;51.998;5.140;2022-12-29T06:05:50;8.75;118.99
65559;DHT22;52203;51.998;5.140;2022-12-29T06:08:15;8.75;118.99
65559;DHT22;52203;51.998;5.140;2022-12-29T06:10:41;8.79;118.99
65559;DHT22;52203;51.998;5.140;2022-12-29T06:13:06;8.79;118.99
65559;DHT22;52203;51.998;5.140;2022-12-29T06:15:33;8.79;118.99
65559;DHT22;52203;51.998;5.140;2022-12-29T06:17:58;8.78;118.99
65559;DHT22;52203;51.998;5.140;2022-12-29T06:20:24;8.76;118.99
65559;DHT22;52203;51.998;5.140;2022-12-29T06:22:50;8.75;118.99
65559;DHT22;52203;51.998;5.140;2022-12-29T06:25:16;8.78;118.99
65559;DHT22;52203;51.998;5.140;2022-12-29T06:27:42;8.81;118.99
65559;DHT22;52203;51.998;5.140;2022-12-29T06:30:08;8.82;118.99
65559;DHT22;52203;51.998;5.140;2022-12-29T06:32:34;8.81;118.99
65559;DHT22;52203;51.998;5.140;2022-12-29T06:35:01;8.82;118.99
65559;DHT22;52203;51.998;5.140;2022-12-29T06:37:26;8.77;118.99
65559;DHT22;52203;51.998;5.140;2022-12-29T06:39:52;8.68;118.99
65559;DHT22;52203;51.998;5.140;2022-12-29T06:42:17;8.66;118.99
65559;DHT22;52203;51.998;5.140;2022-12-29T06:44:43;8.64;118.99
65559;DHT22;52203;51.998;5.140;2022-12-29T06:47:09;8.71;118.99
65559;DHT22;52203;51.998;5.140;2022-12-29T06:49:34;8.72;118.99
65559;DHT22;52203;51.998;5.140;2022-12-29T06:52:00;8.72;118.99
65559;DHT22;52203;51.998;5.140;2022-12-29T06:54:29;8.73;118.99
65559;DHT22;52203;51.998;5.140;2022-12-29T06:56:55;8.75;118.99
65559;DHT22;52203;51.998;5.140;2022-12-29T06:59:20;8.74;118.99
65559;DHT22;52203;51.998;5.140;2022-12-29T07:01:46;8.77;118.99
65559;DHT22;52203;51.998;5.140;2022-12-29T07:04:11;8.79;118.99
65559;DHT22;52203;51.998;5.140;2022-12-29T07:06:37;8.75;118.99
65559;DHT22;52203;51.998;5.140;2022-12-29T07:09:03;8.74;118.99
65559;DHT22;52203;51.998;5.140;2022-12-29T07:11:28;8.75;118.99
65559;DHT22;52203;51.998;5.140;2022-12-29T07:13:54;8.74;118.99
65559;DHT22;52203;51.998;5.140;2022-12-29T07:16:19;8.77;118.99
65559;DHT22;52203;51.998;5.140;2022-12-29T07:18:45;8.77;118.99
65559;DHT22;52203;51.998;5.140;2022-12-29T07:21:11;8.79;118.99
65559;DHT22;52203;51.998;5.140;2022-12-29T07:23:37;8.79;118.99
65559;DHT22;52203;51.998;5.140;2022-12-29T07:26:07;8.78;118.99
65559;DHT22;52203;51.998;5.140;2022-12-29T07:28:35;8.80;118.99
65559;DHT22;52203;51.998;5.140;2022-12-29T07:31:01;8.78;118.99
65559;DHT22;52203;51.998;5.140;2022-12-29T07:33:30;8.79;118.99
65559;DHT22;52203;51.998;5.140;2022-12-29T07:35:56;8.81;118.99
65559;DHT22;52203;51.998;5.140;2022-12-29T07:38:22;8.82;118.99
65559;DHT22;52203;51.998;5.140;2022-12-29T07:40:48;8.79;118.99
65559;DHT22;52203;51.998;5.140;2022-12-29T07:43:13;8.80;118.99
65559;DHT22;52203;51.998;5.140;2022-12-29T07:45:40;8.79;118.99
65559;DHT22;52203;51.998;5.140;2022-12-29T07:48:05;8.79;118.99
65559;DHT22;52203;51.998;5.140;2022-12-29T07:50:34;8.79;118.99
65559;DHT22;52203;51.998;5.140;2022-12-29T07:52:59;8.77;118.99
65559;DHT22;52203;51.998;5.140;2022-12-29T07:55:25;8.78;118.99
65559;DHT22;52203;51.998;5.140;2022-12-29T07:57:53;8.79;118.99
65559;DHT22;52203;51.998;5.140;2022-12-29T08:00:19;8.79;118.99
65559;DHT22;52203;51.998;5.140;2022-12-29T08:02:45;8.78;118.99
65559;DHT22;52203;51.998;5.140;2022-12-29T08:05:11;8.79;118.99
65559;DHT22;52203;51.998;5.140;2022-12-29T08:07:36;8.78;118.99
65559;DHT22;52203;51.998;5.140;2022-12-29T08:10:02;8.80;118.99
65559;DHT22;52203;51.998;5.140;2022-12-29T08:12:28;8.80;118.99
65559;DHT22;52203;51.998;5.140;2022-12-29T08:14:54;8.80;118.99
65559;DHT22;52203;51.998;5.140;2022-12-29T08:17:19;8.81;118.99
65559;DHT22;52203;51.998;5.140;2022-12-29T08:19:46;8.81;118.99
65559;DHT22;52203;51.998;5.140;2022-12-29T08:22:14;8.83;118.99
65559;DHT22;52203;51.998;5.140;2022-12-29T08:24:39;8.78;118.99
65559;DHT22;52203;51.998;5.140;2022-12-29T08:27:05;8.77;118.99
65559;DHT22;52203;51.998;5.140;2022-12-29T08:29:31;8.77;118.99
65559;DHT22;52203;51.998;5.140;2022-12-29T08:31:56;8.78;118.99
65559;DHT22;52203;51.998;5.140;2022-12-29T08:34:22;8.78;118.99
65559;DHT22;52203;51.998;5.140;2022-12-29T08:36:48;8.81;118.99
65559;DHT22;52203;51.998;5.140;2022-12-29T08:39:13;8.81;118.99
65559;DHT22;52203;51.998;5.140;2022-12-29T08:41:39;8.81;118.99
65559;DHT22;52203;51.998;5.140;2022-12-29T08:44:05;8.79;118.99
65559;DHT22;52203;51.998;5.140;2022-12-29T08:46:31;8.77;118.99
65559;DHT22;52203;51.998;5.140;2022-12-29T08:48:56;8.77;118.99
65559;DHT22;52203;51.998;5.140;2022-12-29T08:51:22;8.75;118.99
65559;DHT22;52203;51.998;5.140;2022-12-29T08:53:47;8.73;118.99
65559;DHT22;52203;51.998;5.140;2022-12-29T08:56:13;8.72;118.99
65559;DHT22;52203;51.998;5.140;2022-12-29T08:58:39;8.73;118.99
65559;DHT22;52203;51.998;5.140;2022-12-29T09:01:04;8.70;118.99
65559;DHT22;52203;51.998;5.140;2022-12-29T09:03:30;8.72;118.99
65559;DHT22;52203;51.998;5.140;2022-12-29T09:05:55;8.71;118.99
65559;DHT22;52203;51.998;5.140;2022-12-29T09:08:22;8.73;118.99
65559;DHT22;52203;51.998;5.140;2022-12-29T09:10:48;8.72;118.99
65559;DHT22;52203;51.998;5.140;2022-12-29T09:13:14;8.68;118.99
65559;DHT22;52203;51.998;5.140;2022-12-29T09:15:40;8.68;118.99
65559;DHT22;52203;51.998;5.140;2022-12-29T09:18:07;8.66;118.99
65559;DHT22;52203;51.998;5.140;2022-12-29T09:20:33;8.62;118.99
65559;DHT22;52203;51.998;5.140;2022-12-29T09:22:59;8.66;118.99
65559;DHT22;52203;51.998;5.140;2022-12-29T09:25:25;8.65;118.99
65559;DHT22;52203;51.998;5.140;2022-12-29T09:27:51;8.62;118.99
65559;DHT22;52203;51.998;5.140;2022-12-29T09:30:20;8.59;118.99
65559;DHT22;52203;51.998;5.140;2022-12-29T09:32:47;8.56;118.99
65559;DHT22;52203;51.998;5.140;2022-12-29T09:35:14;8.57;118.99
65559;DHT22;52203;51.998;5.140;2022-12-29T09:37:39;8.57;118.99
65559;DHT22;52203;51.998;5.140;2022-12-29T09:40:06;8.59;118.99
65559;DHT22;52203;51.998;5.140;2022-12-29T09:42:38;8.49;118.99
65559;DHT22;52203;51.998;5.140;2022-12-29T09:45:35;8.55;118.99
65559;DHT22;52203;51.998;5.140;2022-12-29T09:48:04;8.57;118.99
65559;DHT22;52203;51.998;5.140;2022-12-29T09:50:37;8.57;118.99
65559;DHT22;52203;51.998;5.140;2022-12-29T09:53:21;8.59;118.99
65559;DHT22;52203;51.998;5.140;2022-12-29T09:55:51;8.52;118.99
65559;DHT22;52203;51.998;5.140;2022-12-29T09:58:38;8.57;118.99
65559;DHT22;52203;51.998;5.140;2022-12-29T10:01:06;8.59;118.99
65559;DHT22;52203;51.998;5.140;2022-12-29T10:03:44;8.59;118.99
65559;DHT22;52203;51.998;5.140;2022-12-29T10:08:57;8.59;118.99
65559;DHT22;52203;51.998;5.140;2022-12-29T10:17:05;8.62;118.99
65559;DHT22;52203;51.998;5.140;2022-12-29T10:22:26;8.62;118.99
65559;DHT22;52203;51.998;5.140;2022-12-29T10:24:58;8.62;118.99
65559;DHT22;52203;51.998;5.140;2022-12-29T10:27:30;8.61;118.99
65559;DHT22;52203;51.998;5.140;2022-12-29T10:29:58;8.62;118.99
65559;DHT22;52203;51.998;5.140;2022-12-29T10:32:34;8.64;118.99
65559;DHT22;52203;51.998;5.140;2022-12-29T10:35:09;8.63;118.99
65559;DHT22;52203;51.998;5.140;2022-12-29T10:40:46;8.65;118.99
65559;DHT22;52203;51.998;5.140;2022-12-29T10:43:27;8.62;118.99
65559;DHT22;52203;51.998;5.140;2022-12-29T10:45:55;8.63;118.99
65559;DHT22;52203;51.998;5.140;2022-12-29T10:48:28;8.62;118.99
65559;DHT22;52203;51.998;5.140;2022-12-29T10:50:56;8.61;118.99
65559;DHT22;52203;51.998;5.140;2022-12-29T10:53:44;8.63;118.99
65559;DHT22;52203;51.998;5.140;2022-12-29T10:56:29;8.62;118.99
65559;DHT22;52203;51.998;5.140;2022-12-29T10:58:57;8.67;118.99
65559;DHT22;52203;51.998;5.140;2022-12-29T11:01:30;8.78;118.99
65559;DHT22;52203;51.998;5.140;2022-12-29T11:04:03;8.72;118.99
65559;DHT22;52203;51.998;5.140;2022-12-29T11:06:30;8.75;118.99
65559;DHT22;52203;51.998;5.140;2022-12-29T11:08:59;8.67;118.99
65559;DHT22;52203;51.998;5.140;2022-12-29T11:11:33;8.72;118.99
65559;DHT22;52203;51.998;5.140;2022-12-29T11:16:31;8.78;118.99
65559;DHT22;52203;51.998;5.140;2022-12-29T11:18:58;8.83;118.99
65559;DHT22;52203;51.998;5.140;2022-12-29T11:21:37;8.83;118.99
65559;DHT22;52203;51.998;5.140;2022-12-29T11:24:26;8.82;118.99
65559;DHT22;52203;51.998;5.140;2022-12-29T11:27:13;8.87;118.99
65559;DHT22;52203;51.998;5.140;2022-12-29T11:29:41;8.87;118.99
65559;DHT22;52203;51.998;5.140;2022-12-29T11:32:33;8.95;118.99
65559;DHT22;52203;51.998;5.140;2022-12-29T11:34:59;8.77;118.99
65559;DHT22;52203;51.998;5.140;2022-12-29T11:37:31;8.78;118.99
65559;DHT22;52203;51.998;5.140;2022-12-29T11:40:03;8.80;118.99
65559;DHT22;52203;51.998;5.140;2022-12-29T11:42:43;8.82;118.99
65559;DHT22;52203;51.998;5.140;2022-12-29T11:47:48;8.85;118.99
65559;DHT22;52203;51.998;5.140;2022-12-29T11:50:26;8.87;118.99
65559;DHT22;52203;51.998;5.140;2022-12-29T11:53:04;8.85;118.99
65559;DHT22;52203;51.998;5.140;2022-12-29T11:55:31;8.89;118.99
65559;DHT22;52203;51.998;5.140;2022-12-29T11:57:59;8.88;118.99
65559;DHT22;52203;51.998;5.140;2022-12-29T12:00:28;8.85;118.99
65559;DHT22;52203;51.998;5.140;2022-12-29T12:03:07;8.88;118.99
65559;DHT22;52203;51.998;5.140;2022-12-29T12:06:00;8.88;118.99
65559;DHT22;52203;51.998;5.140;2022-12-29T12:08:39;8.90;118.99
65559;DHT22;52203;51.998;5.140;2022-12-29T12:11:19;8.87;118.99
65559;DHT22;52203;51.998;5.140;2022-12-29T12:14:02;8.90;118.99
65559;DHT22;52203;51.998;5.140;2022-12-29T12:16:40;8.89;118.99
65559;DHT22;52203;51.998;5.140;2022-12-29T12:19:36;8.85;118.99
65559;DHT22;52203;51.998;5.140;2022-12-29T12:22:12;8.81;118.99
65559;DHT22;52203;51.998;5.140;2022-12-29T12:30:00;8.97;118.99
65559;DHT22;52203;51.998;5.140;2022-12-29T12:54:39;9.01;118.99
65559;DHT22;52203;51.998;5.140;2022-12-29T12:57:40;8.95;118.99
65559;DHT22;52203;51.998;5.140;2022-12-29T13:00:12;9.01;118.99
65559;DHT22;52203;51.998;5.140;2022-12-29T13:08:21;8.97;118.99
65559;DHT22;52203;51.998;5.140;2022-12-29T13:11:07;9.05;118.99
65559;DHT22;52203;51.998;5.140;2022-12-29T13:22:28;8.97;118.99
65559;DHT22;52203;51.998;5.140;2022-12-29T13:28:06;8.95;118.99
65559;DHT22;52203;51.998;5.140;2022-12-29T13:33:46;8.93;118.99
65559;DHT22;52203;51.998;5.140;2022-12-29T13:36:28;8.91;118.99
65559;DHT22;52203;51.998;5.140;2022-12-29T13:39:10;8.92;118.99
65559;DHT22;52203;51.998;5.140;2022-12-29T13:41:52;8.89;118.99
65559;DHT22;52203;51.998;5.140;2022-12-29T13:44:34;8.93;118.99
65559;DHT22;52203;51.998;5.140;2022-12-29T13:47:08;8.91;118.99
65559;DHT22;52203;51.998;5.140;2022-12-29T13:49:37;8.86;118.99
65559;DHT22;52203;51.998;5.140;2022-12-29T13:52:18;8.86;118.99
65559;DHT22;52203;51.998;5.140;2022-12-29T13:55:17;8.83;118.99
65559;DHT22;52203;51.998;5.140;2022-12-29T14:00:20;8.87;118.99
65559;DHT22;52203;51.998;5.140;2022-12-29T14:07:44;8.85;118.99
65559;DHT22;52203;51.998;5.140;2022-12-29T14:13:14;8.74;118.99
65559;DHT22;52203;51.998;5.140;2022-12-29T14:15:50;8.76;118.99
65559;DHT22;52203;51.998;5.140;2022-12-29T14:18:24;8.78;118.99
65559;DHT22;52203;51.998;5.140;2022-12-29T14:20:59;8.78;118.99
65559;DHT22;52203;51.998;5.140;2022-12-29T14:23:42;9.06;118.99
65559;DHT22;52203;51.998;5.140;2022-12-29T14:28:55;8.87;118.99
65559;DHT22;52203;51.998;5.140;2022-12-29T14:37:01;8.86;118.99
65559;DHT22;52203;51.998;5.140;2022-12-29T14:44:53;8.83;118.99
65559;DHT22;52203;51.998;5.140;2022-12-29T14:50:06;8.79;118.99
65559;DHT22;52203;51.998;5.140;2022-12-29T14:53:00;8.78;118.99
65559;DHT22;52203;51.998;5.140;2022-12-29T15:00:50;8.80;118.99
65559;DHT22;52203;51.998;5.140;2022-12-29T15:06:07;8.78;118.99
65559;DHT22;52203;51.998;5.140;2022-12-29T15:08:46;8.73;118.99
65559;DHT22;52203;51.998;5.140;2022-12-29T15:11:24;8.75;118.99
65559;DHT22;52203;51.998;5.140;2022-12-29T15:13:56;8.74;118.99
65559;DHT22;52203;51.998;5.140;2022-12-29T15:16:23;8.71;118.99
65559;DHT22;52203;51.998;5.140;2022-12-29T15:18:49;8.70;118.99
65559;DHT22;52203;51.998;5.140;2022-12-29T15:21:15;8.66;118.99
65559;DHT22;52203;51.998;5.140;2022-12-29T15:23:43;8.62;118.99
65559;DHT22;52203;51.998;5.140;2022-12-29T15:26:10;8.61;118.99
65559;DHT22;52203;51.998;5.140;2022-12-29T15:28:41;8.60;118.99
65559;DHT22;52203;51.998;5.140;2022-12-29T15:31:24;8.58;118.99
65559;DHT22;52203;51.998;5.140;2022-12-29T15:33:52;8.58;118.99
65559;DHT22;52203;51.998;5.140;2022-12-29T15:36:19;8.55;118.99
65559;DHT22;52203;51.998;5.140;2022-12-29T15:38:45;8.53;118.99
65559;DHT22;52203;51.998;5.140;2022-12-29T15:44:14;8.52;118.99
65559;DHT22;52203;51.998;5.140;2022-12-29T15:46:41;8.49;118.99
65559;DHT22;52203;51.998;5.140;2022-12-29T15:49:08;8.50;118.99
65559;DHT22;52203;51.998;5.140;2022-12-29T15:51:37;8.47;118.99
65559;DHT22;52203;51.998;5.140;2022-12-29T15:54:03;8.48;118.99
65559;DHT22;52203;51.998;5.140;2022-12-29T15:56:30;8.43;118.99
65559;DHT22;52203;51.998;5.140;2022-12-29T15:58:57;8.45;118.99
65559;DHT22;52203;51.998;5.140;2022-12-29T16:03:55;8.46;118.99
65559;DHT22;52203;51.998;5.140;2022-12-29T16:11:46;8.37;118.99
65559;DHT22;52203;51.998;5.140;2022-12-29T16:14:19;8.37;118.99
65559;DHT22;52203;51.998;5.140;2022-12-29T16:16:47;8.39;118.99
65559;DHT22;52203;51.998;5.140;2022-12-29T16:19:21;8.41;118.99
65559;DHT22;52203;51.998;5.140;2022-12-29T16:21:47;8.39;118.99
65559;DHT22;52203;51.998;5.140;2022-12-29T16:24:17;8.36;118.99
65559;DHT22;52203;51.998;5.140;2022-12-29T16:26:48;8.34;118.99
65559;DHT22;52203;51.998;5.140;2022-12-29T16:29:15;8.34;118.99
65559;DHT22;52203;51.998;5.140;2022-12-29T16:31:55;8.33;118.99
65559;DHT22;52203;51.998;5.140;2022-12-29T16:37:31;8.31;118.99
65559;DHT22;52203;51.998;5.140;2022-12-29T16:48:27;8.31;118.99
65559;DHT22;52203;51.998;5.140;2022-12-29T16:51:13;8.32;118.99
65559;DHT22;52203;51.998;5.140;2022-12-29T16:53:40;8.31;118.99
65559;DHT22;52203;51.998;5.140;2022-12-29T16:56:34;8.27;118.99
65559;DHT22;52203;51.998;5.140;2022-12-29T16:59:20;8.29;118.99
65559;DHT22;52203;51.998;5.140;2022-12-29T17:01:49;8.28;118.99
65559;DHT22;52203;51.998;5.140;2022-12-29T17:04:14;8.29;118.99
65559;DHT22;52203;51.998;5.140;2022-12-29T17:06:40;8.27;118.99
65559;DHT22;52203;51.998;5.140;2022-12-29T17:09:20;8.26;118.99
65559;DHT22;52203;51.998;5.140;2022-12-29T17:11:48;8.26;118.99
65559;DHT22;52203;51.998;5.140;2022-12-29T17:16:51;8.27;118.99
65559;DHT22;52203;51.998;5.140;2022-12-29T17:19:20;8.23;118.99
65559;DHT22;52203;51.998;5.140;2022-12-29T17:21:46;8.23;118.99
65559;DHT22;52203;51.998;5.140;2022-12-29T17:24:16;8.24;118.99
65559;DHT22;52203;51.998;5.140;2022-12-29T17:26:45;8.24;118.99
65559;DHT22;52203;51.998;5.140;2022-12-29T17:29:32;8.21;118.99
65559;DHT22;52203;51.998;5.140;2022-12-29T17:32:00;8.17;118.99
65559;DHT22;52203;51.998;5.140;2022-12-29T17:34:26;8.22;118.99
65559;DHT22;52203;51.998;5.140;2022-12-29T17:36:52;8.23;118.99
65559;DHT22;52203;51.998;5.140;2022-12-29T17:39:18;8.23;118.99
65559;DHT22;52203;51.998;5.140;2022-12-29T17:41:44;8.22;118.99
65559;DHT22;52203;51.998;5.140;2022-12-29T17:44:15;8.20;118.99
65559;DHT22;52203;51.998;5.140;2022-12-29T17:46:42;8.20;118.99
65559;DHT22;52203;51.998;5.140;2022-12-29T17:49:12;8.16;118.99
65559;DHT22;52203;51.998;5.140;2022-12-29T17:51:40;8.24;118.99
65559;DHT22;52203;51.998;5.140;2022-12-29T17:54:17;8.26;118.99
65559;DHT22;52203;51.998;5.140;2022-12-29T17:56:44;8.28;118.99
65559;DHT22;52203;51.998;5.140;2022-12-29T17:59:12;8.31;118.99
65559;DHT22;52203;51.998;5.140;2022-12-29T18:01:39;8.32;118.99
65559;DHT22;52203;51.998;5.140;2022-12-29T18:04:04;8.26;118.99
65559;DHT22;52203;51.998;5.140;2022-12-29T18:06:30;8.26;118.99
65559;DHT22;52203;51.998;5.140;2022-12-29T18:08:55;8.28;118.99
65559;DHT22;52203;51.998;5.140;2022-12-29T18:11:24;8.27;118.99
65559;DHT22;52203;51.998;5.140;2022-12-29T18:13:51;8.31;118.99
65559;DHT22;52203;51.998;5.140;2022-12-29T18:16:17;8.35;118.99
65559;DHT22;52203;51.998;5.140;2022-12-29T18:18:42;8.30;118.99
65559;DHT22;52203;51.998;5.140;2022-12-29T18:21:21;8.26;118.99
65559;DHT22;52203;51.998;5.140;2022-12-29T18:23:47;8.27;118.99
65559;DHT22;52203;51.998;5.140;2022-12-29T18:26:24;8.27;118.99
65559;DHT22;52203;51.998;5.140;2022-12-29T18:28:49;8.29;118.99
65559;DHT22;52203;51.998;5.140;2022-12-29T18:31:23;8.28;118.99
65559;DHT22;52203;51.998;5.140;2022-12-29T18:33:50;8.22;118.99